sensor_id;sensor_type;location;lat;lon;timestamp;temperature;humidity
20856;DHT22;63058;49.424;8.420;2024-03-23T00:55:44;14.70;72.60
20856;DHT22;63058;49.424;8.420;2024-03-23T00:58:09;14.70;72.70
20856;DHT22;63058;49.424;8.420;2024-03-23T01:00:35;14.70;72.80
20856;DHT22;63058;49.424;8.420;2024-03-23T01:03:01;14.60;72.90
20856;DHT22;63058;49.424;8.420;2024-03-23T01:05:26;14.70;73.10
20856;DHT22;63058;49.424;8.420;2024-03-23T01:07:52;14.60;73.40
20856;DHT22;63058;49.424;8.420;2024-03-23T01:10:17;14.70;73.60
20856;DHT22;63058;49.424;8.420;2024-03-23T01:12:43;14.70;73.70
20856;DHT22;63058;49.424;8.420;2024-03-23T01:15:09;14.80;73.90
20856;DHT22;63058;49.424;8.420;2024-03-23T01:17:34;14.80;74.10
20856;DHT22;63058;49.424;8.420;2024-03-23T01:20:00;14.90;74.00
20856;DHT22;63058;49.424;8.420;2024-03-23T01:22:26;14.90;74.00
20856;DHT22;63058;49.424;8.420;2024-03-23T01:24:51;15.00;74.00
20856;DHT22;63058;49.424;8.420;2024-03-23T01:27:17;15.00;73.80
20856;DHT22;63058;49.424;8.420;2024-03-23T01:29:43;15.00;73.70
20856;DHT22;63058;49.424;8.420;2024-03-23T01:32:09;15.00;73.70
20856;DHT22;63058;49.424;8.420;2024-03-23T01:34:35;15.00;73.70
20856;DHT22;63058;49.424;8.420;2024-03-23T01:37:01;15.00;73.80
20856;DHT22;63058;49.424;8.420;2024-03-23T01:39:26;15.00;73.90
20856;DHT22;63058;49.424;8.420;2024-03-23T01:41:52;15.00;74.00
20856;DHT22;63058;49.424;8.420;2024-03-23T01:44:18;15.00;74.00
20856;DHT22;63058;49.424;8.420;2024-03-23T01:46:44;15.00;74.10
20856;DHT22;63058;49.424;8.420;2024-03-23T01:49:10;15.00;74.20
20856;DHT22;63058;49.424;8.420;2024-03-23T01:51:36;15.00;74.20
20856;DHT22;63058;49.424;8.420;2024-03-23T01:54:03;15.00;74.30
20856;DHT22;63058;49.424;8.420;2024-03-23T01:56:29;14.90;74.40
20856;DHT22;63058;49.424;8.420;2024-03-23T01:58:55;14.90;74.40
20856;DHT22;63058;49.424;8.420;2024-03-23T02:01:21;14.90;74.30
20856;DHT22;63058;49.424;8.420;2024-03-23T02:03:47;15.00;74.60
20856;DHT22;63058;49.424;8.420;2024-03-23T02:06:12;15.00;74.60
20856;DHT22;63058;49.424;8.420;2024-03-23T02:08:39;15.00;74.60
20856;DHT22;63058;49.424;8.420;2024-03-23T02:11:05;15.00;74.60
20856;DHT22;63058;49.424;8.420;2024-03-23T02:13:30;15.00;74.70
20856;DHT22;63058;49.424;8.420;2024-03-23T02:15:57;15.00;74.50
20856;DHT22;63058;49.424;8.420;2024-03-23T02:18:23;15.10;74.60
20856;DHT22;63058;49.424;8.420;2024-03-23T02:20:48;15.10;74.60
20856;DHT22;63058;49.424;8.420;2024-03-23T02:23:15;15.10;74.70
20856;DHT22;63058;49.424;8.420;2024-03-23T02:25:40;15.10;74.90
20856;DHT22;63058;49.424;8.420;2024-03-23T02:28:06;15.10;74.80
20856;DHT22;63058;49.424;8.420;2024-03-23T02:30:32;15.10;74.80
20856;DHT22;63058;49.424;8.420;2024-03-23T02:32:57;15.10;74.80
20856;DHT22;63058;49.424;8.420;2024-03-23T02:35:23;15.10;74.90
20856;DHT22;63058;49.424;8.420;2024-03-23T02:37:49;15.10;74.80
20856;DHT22;63058;49.424;8.420;2024-03-23T02:40:15;15.10;74.80
20856;DHT22;63058;49.424;8.420;2024-03-23T02:42:41;15.10;74.80
20856;DHT22;63058;49.424;8.420;2024-03-23T02:45:07;15.10;74.80
20856;DHT22;63058;49.424;8.420;2024-03-23T02:47:33;15.10;74.80
20856;DHT22;63058;49.424;8.420;2024-03-23T02:49:59;15.10;75.00
20856;DHT22;63058;49.424;8.420;2024-03-23T02:52:24;15.20;75.10
20856;DHT22;63058;49.424;8.420;2024-03-23T02:54:50;15.10;74.90
20856;DHT22;63058;49.424;8.420;2024-03-23T02:57:15;15.10;74.90
20856;DHT22;63058;49.424;8.420;2024-03-23T02:59:41;15.10;75.70
20856;DHT22;63058;49.424;8.420;2024-03-23T03:02:07;15.10;75.10
20856;DHT22;63058;49.424;8.420;2024-03-23T03:04:33;15.10;75.00
20856;DHT22;63058;49.424;8.420;2024-03-23T03:06:59;15.10;75.00
20856;DHT22;63058;49.424;8.420;2024-03-23T03:09:25;15.00;75.10
20856;DHT22;63058;49.424;8.420;2024-03-23T03:11:50;15.00;75.00
20856;DHT22;63058;49.424;8.420;2024-03-23T03:14:16;15.00;75.10
20856;DHT22;63058;49.424;8.420;2024-03-23T03:16:42;15.00;75.00
20856;DHT22;63058;49.424;8.420;2024-03-23T03:19:07;14.90;74.80
20856;DHT22;63058;49.424;8.420;2024-03-23T03:21:33;15.00;75.00
20856;DHT22;63058;49.424;8.420;2024-03-23T03:23:59;14.90;74.80
20856;DHT22;63058;49.424;8.420;2024-03-23T03:26:24;14.90;75.50
20856;DHT22;63058;49.424;8.420;2024-03-23T03:28:50;14.90;74.60
20856;DHT22;63058;49.424;8.420;2024-03-23T03:31:16;14.90;75.40
20856;DHT22;63058;49.424;8.420;2024-03-23T03:33:43;14.90;74.70
20856;DHT22;63058;49.424;8.420;2024-03-23T03:36:08;14.90;74.60
20856;DHT22;63058;49.424;8.420;2024-03-23T03:38:34;14.90;74.60
20856;DHT22;63058;49.424;8.420;2024-03-23T03:41:06;14.90;74.50
20856;DHT22;63058;49.424;8.420;2024-03-23T03:43:32;15.00;74.50
20856;DHT22;63058;49.424;8.420;2024-03-23T03:45:59;15.00;74.40
20856;DHT22;63058;49.424;8.420;2024-03-23T03:48:25;15.00;74.40
20856;DHT22;63058;49.424;8.420;2024-03-23T03:50:52;15.00;74.30
20856;DHT22;63058;49.424;8.420;2024-03-23T03:53:19;15.10;74.30
20856;DHT22;63058;49.424;8.420;2024-03-23T03:55:44;15.10;74.20
20856;DHT22;63058;49.424;8.420;2024-03-23T03:58:10;15.10;74.20
20856;DHT22;63058;49.424;8.420;2024-03-23T04:00:36;15.10;74.10
20856;DHT22;63058;49.424;8.420;2024-03-23T04:03:02;15.10;74.00
20856;DHT22;63058;49.424;8.420;2024-03-23T04:05:27;15.20;74.00
20856;DHT22;63058;49.424;8.420;2024-03-23T04:07:53;15.20;74.00
20856;DHT22;63058;49.424;8.420;2024-03-23T04:10:19;15.20;73.90
20856;DHT22;63058;49.424;8.420;2024-03-23T04:12:47;15.20;73.80
20856;DHT22;63058;49.424;8.420;2024-03-23T04:15:13;15.20;73.80
20856;DHT22;63058;49.424;8.420;2024-03-23T04:17:39;15.20;73.70
20856;DHT22;63058;49.424;8.420;2024-03-23T04:20:05;15.20;73.70
20856;DHT22;63058;49.424;8.420;2024-03-23T04:22:34;15.20;73.80
20856;DHT22;63058;49.424;8.420;2024-03-23T04:25:00;15.20;73.80
20856;DHT22;63058;49.424;8.420;2024-03-23T04:27:35;15.20;73.80
20856;DHT22;63058;49.424;8.420;2024-03-23T04:30:00;15.20;73.90
20856;DHT22;63058;49.424;8.420;2024-03-23T04:32:27;15.20;73.80
20856;DHT22;63058;49.424;8.420;2024-03-23T04:34:53;15.20;73.90
20856;DHT22;63058;49.424;8.420;2024-03-23T04:37:18;15.20;74.00
20856;DHT22;63058;49.424;8.420;2024-03-23T04:39:45;15.20;74.00
20856;DHT22;63058;49.424;8.420;2024-03-23T04:42:10;15.20;74.00
20856;DHT22;63058;49.424;8.420;2024-03-23T04:44:37;15.20;73.90
20856;DHT22;63058;49.424;8.420;2024-03-23T04:47:03;15.20;73.80
20856;DHT22;63058;49.424;8.420;2024-03-23T04:49:28;15.20;74.00
20856;DHT22;63058;49.424;8.420;2024-03-23T04:51:54;15.20;73.90
20856;DHT22;63058;49.424;8.420;2024-03-23T04:54:20;15.20;74.00
20856;DHT22;63058;49.424;8.420;2024-03-23T04:56:45;15.20;73.90
20856;DHT22;63058;49.424;8.420;2024-03-23T04:59:11;15.10;73.80
20856;DHT22;63058;49.424;8.420;2024-03-23T05:01:37;15.10;73.70
20856;DHT22;63058;49.424;8.420;2024-03-23T05:04:04;15.10;73.70
20856;DHT22;63058;49.424;8.420;2024-03-23T05:06:30;15.10;73.50
20856;DHT22;63058;49.424;8.420;2024-03-23T05:08:56;15.10;72.90
20856;DHT22;63058;49.424;8.420;2024-03-23T05:11:22;15.00;71.90
20856;DHT22;63058;49.424;8.420;2024-03-23T05:13:47;15.00;72.00
20856;DHT22;63058;49.424;8.420;2024-03-23T05:16:13;14.90;72.00
20856;DHT22;63058;49.424;8.420;2024-03-23T05:18:39;14.90;72.10
20856;DHT22;63058;49.424;8.420;2024-03-23T05:21:04;14.90;72.20
20856;DHT22;63058;49.424;8.420;2024-03-23T05:23:30;14.80;72.30
20856;DHT22;63058;49.424;8.420;2024-03-23T05:25:55;14.80;72.40
20856;DHT22;63058;49.424;8.420;2024-03-23T05:28:22;14.80;72.80
20856;DHT22;63058;49.424;8.420;2024-03-23T05:30:52;14.70;72.10
20856;DHT22;63058;49.424;8.420;2024-03-23T05:33:19;14.60;71.00
20856;DHT22;63058;49.424;8.420;2024-03-23T05:35:44;14.50;70.40
20856;DHT22;63058;49.424;8.420;2024-03-23T05:38:10;14.30;70.50
20856;DHT22;63058;49.424;8.420;2024-03-23T05:40:36;14.20;70.70
20856;DHT22;63058;49.424;8.420;2024-03-23T05:43:03;14.00;71.00
20856;DHT22;63058;49.424;8.420;2024-03-23T05:45:29;13.90;71.30
20856;DHT22;63058;49.424;8.420;2024-03-23T05:47:55;13.70;71.50
20856;DHT22;63058;49.424;8.420;2024-03-23T05:50:22;13.60;71.70
20856;DHT22;63058;49.424;8.420;2024-03-23T05:52:49;13.50;72.00
20856;DHT22;63058;49.424;8.420;2024-03-23T05:55:15;13.40;72.20
20856;DHT22;63058;49.424;8.420;2024-03-23T05:57:41;13.40;72.40
20856;DHT22;63058;49.424;8.420;2024-03-23T06:00:07;13.30;72.50
20856;DHT22;63058;49.424;8.420;2024-03-23T06:02:43;13.20;72.50
20856;DHT22;63058;49.424;8.420;2024-03-23T06:05:12;13.20;72.60
20856;DHT22;63058;49.424;8.420;2024-03-23T06:07:38;13.10;72.90
20856;DHT22;63058;49.424;8.420;2024-03-23T06:10:05;13.10;73.00
20856;DHT22;63058;49.424;8.420;2024-03-23T06:12:31;13.00;73.10
20856;DHT22;63058;49.424;8.420;2024-03-23T06:14:57;13.00;73.20
20856;DHT22;63058;49.424;8.420;2024-03-23T06:17:22;13.00;73.20
20856;DHT22;63058;49.424;8.420;2024-03-23T06:19:48;13.00;73.20
20856;DHT22;63058;49.424;8.420;2024-03-23T06:22:14;12.90;73.20
20856;DHT22;63058;49.424;8.420;2024-03-23T06:24:40;12.90;73.40
20856;DHT22;63058;49.424;8.420;2024-03-23T06:27:06;12.90;73.60
20856;DHT22;63058;49.424;8.420;2024-03-23T06:29:31;12.90;73.50
20856;DHT22;63058;49.424;8.420;2024-03-23T06:31:57;12.90;73.70
20856;DHT22;63058;49.424;8.420;2024-03-23T06:34:23;12.90;73.90
20856;DHT22;63058;49.424;8.420;2024-03-23T06:36:50;12.90;74.00
20856;DHT22;63058;49.424;8.420;2024-03-23T06:39:16;12.90;74.00
20856;DHT22;63058;49.424;8.420;2024-03-23T06:41:54;12.90;74.00
20856;DHT22;63058;49.424;8.420;2024-03-23T06:44:20;12.90;74.20
20856;DHT22;63058;49.424;8.420;2024-03-23T06:46:46;12.90;73.90
20856;DHT22;63058;49.424;8.420;2024-03-23T06:49:14;12.90;74.00
20856;DHT22;63058;49.424;8.420;2024-03-23T06:51:40;12.80;73.90
20856;DHT22;63058;49.424;8.420;2024-03-23T06:54:06;12.80;74.00
20856;DHT22;63058;49.424;8.420;2024-03-23T06:56:33;12.80;74.00
20856;DHT22;63058;49.424;8.420;2024-03-23T06:58:59;12.80;74.10
20856;DHT22;63058;49.424;8.420;2024-03-23T07:01:25;12.80;74.70
20856;DHT22;63058;49.424;8.420;2024-03-23T07:03:50;12.80;74.00
20856;DHT22;63058;49.424;8.420;2024-03-23T07:06:16;12.70;73.80
20856;DHT22;63058;49.424;8.420;2024-03-23T07:08:42;12.70;73.50
20856;DHT22;63058;49.424;8.420;2024-03-23T07:11:07;12.70;73.30
20856;DHT22;63058;49.424;8.420;2024-03-23T07:13:33;12.60;73.10
20856;DHT22;63058;49.424;8.420;2024-03-23T07:15:58;12.60;73.10
20856;DHT22;63058;49.424;8.420;2024-03-23T07:18:25;12.60;73.20
20856;DHT22;63058;49.424;8.420;2024-03-23T07:20:58;12.50;73.20
20856;DHT22;63058;49.424;8.420;2024-03-23T07:23:26;12.50;73.40
20856;DHT22;63058;49.424;8.420;2024-03-23T07:25:59;12.50;73.20
20856;DHT22;63058;49.424;8.420;2024-03-23T07:28:25;12.50;73.00
20856;DHT22;63058;49.424;8.420;2024-03-23T07:31:04;12.60;73.20
20856;DHT22;63058;49.424;8.420;2024-03-23T07:33:30;12.60;72.90
20856;DHT22;63058;49.424;8.420;2024-03-23T07:35:55;12.70;72.70
20856;DHT22;63058;49.424;8.420;2024-03-23T07:38:21;12.70;73.40
20856;DHT22;63058;49.424;8.420;2024-03-23T07:40:47;12.70;72.10
20856;DHT22;63058;49.424;8.420;2024-03-23T07:43:15;12.70;71.50
20856;DHT22;63058;49.424;8.420;2024-03-23T07:45:41;12.80;71.30
20856;DHT22;63058;49.424;8.420;2024-03-23T07:48:06;12.70;71.40
20856;DHT22;63058;49.424;8.420;2024-03-23T07:50:32;12.80;71.10
20856;DHT22;63058;49.424;8.420;2024-03-23T07:52:58;12.80;70.40
20856;DHT22;63058;49.424;8.420;2024-03-23T07:55:23;12.70;70.40
20856;DHT22;63058;49.424;8.420;2024-03-23T07:57:51;12.70;70.00
20856;DHT22;63058;49.424;8.420;2024-03-23T08:00:17;12.70;70.00
20856;DHT22;63058;49.424;8.420;2024-03-23T08:02:42;12.80;70.00
20856;DHT22;63058;49.424;8.420;2024-03-23T08:05:08;12.80;70.30
20856;DHT22;63058;49.424;8.420;2024-03-23T08:07:34;12.80;70.20
20856;DHT22;63058;49.424;8.420;2024-03-23T08:09:59;12.80;70.50
20856;DHT22;63058;49.424;8.420;2024-03-23T08:12:25;12.80;70.60
20856;DHT22;63058;49.424;8.420;2024-03-23T08:14:51;12.90;70.70
20856;DHT22;63058;49.424;8.420;2024-03-23T08:17:16;13.00;70.80
20856;DHT22;63058;49.424;8.420;2024-03-23T08:19:42;13.10;70.90
20856;DHT22;63058;49.424;8.420;2024-03-23T08:22:07;13.20;71.20
20856;DHT22;63058;49.424;8.420;2024-03-23T08:24:34;13.20;71.10
20856;DHT22;63058;49.424;8.420;2024-03-23T08:27:00;13.40;70.50
20856;DHT22;63058;49.424;8.420;2024-03-23T08:29:26;13.40;70.60
20856;DHT22;63058;49.424;8.420;2024-03-23T08:31:51;13.40;69.10
20856;DHT22;63058;49.424;8.420;2024-03-23T08:34:17;13.40;69.10
20856;DHT22;63058;49.424;8.420;2024-03-23T08:36:43;13.40;68.90
20856;DHT22;63058;49.424;8.420;2024-03-23T08:39:09;13.40;68.90
20856;DHT22;63058;49.424;8.420;2024-03-23T08:41:34;13.40;69.10
20856;DHT22;63058;49.424;8.420;2024-03-23T08:44:00;13.50;69.40
20856;DHT22;63058;49.424;8.420;2024-03-23T08:46:26;13.50;70.10
20856;DHT22;63058;49.424;8.420;2024-03-23T08:48:51;13.50;69.20
20856;DHT22;63058;49.424;8.420;2024-03-23T08:51:18;13.60;69.30
20856;DHT22;63058;49.424;8.420;2024-03-23T08:53:44;13.70;69.60
20856;DHT22;63058;49.424;8.420;2024-03-23T08:56:11;13.80;69.60
20856;DHT22;63058;49.424;8.420;2024-03-23T08:58:38;13.80;68.80
20856;DHT22;63058;49.424;8.420;2024-03-23T09:01:13;14.00;68.80
20856;DHT22;63058;49.424;8.420;2024-03-23T09:03:39;14.10;68.90
20856;DHT22;63058;49.424;8.420;2024-03-23T09:06:13;14.30;69.10
20856;DHT22;63058;49.424;8.420;2024-03-23T09:08:40;14.40;68.60
20856;DHT22;63058;49.424;8.420;2024-03-23T09:11:07;14.60;68.60
20856;DHT22;63058;49.424;8.420;2024-03-23T09:13:37;14.80;68.00
20856;DHT22;63058;49.424;8.420;2024-03-23T09:16:03;15.00;65.30
20856;DHT22;63058;49.424;8.420;2024-03-23T09:18:32;15.00;65.00
20856;DHT22;63058;49.424;8.420;2024-03-23T09:20:58;15.00;62.90
20856;DHT22;63058;49.424;8.420;2024-03-23T09:23:24;15.00;63.50
20856;DHT22;63058;49.424;8.420;2024-03-23T09:25:49;15.00;62.70
20856;DHT22;63058;49.424;8.420;2024-03-23T09:28:15;14.90;61.10
20856;DHT22;63058;49.424;8.420;2024-03-23T09:30:40;14.90;61.70
20856;DHT22;63058;49.424;8.420;2024-03-23T09:33:10;14.80;61.90
20856;DHT22;63058;49.424;8.420;2024-03-23T09:35:40;14.80;61.30
20856;DHT22;63058;49.424;8.420;2024-03-23T09:38:06;14.70;60.10
20856;DHT22;63058;49.424;8.420;2024-03-23T09:40:40;14.70;61.00
20856;DHT22;63058;49.424;8.420;2024-03-23T09:43:09;14.60;60.80
20856;DHT22;63058;49.424;8.420;2024-03-23T09:45:38;14.50;60.00
20856;DHT22;63058;49.424;8.420;2024-03-23T09:48:05;14.40;60.70
20856;DHT22;63058;49.424;8.420;2024-03-23T09:50:32;14.40;61.00
20856;DHT22;63058;49.424;8.420;2024-03-23T09:52:57;14.30;61.50
20856;DHT22;63058;49.424;8.420;2024-03-23T09:55:23;14.30;61.00
20856;DHT22;63058;49.424;8.420;2024-03-23T09:57:50;14.30;61.50
20856;DHT22;63058;49.424;8.420;2024-03-23T10:00:16;14.30;61.00
20856;DHT22;63058;49.424;8.420;2024-03-23T10:02:42;14.30;60.80
20856;DHT22;63058;49.424;8.420;2024-03-23T10:05:21;14.30;60.50
20856;DHT22;63058;49.424;8.420;2024-03-23T10:07:50;14.30;59.00
20856;DHT22;63058;49.424;8.420;2024-03-23T10:10:16;14.30;59.70
20856;DHT22;63058;49.424;8.420;2024-03-23T10:12:46;14.30;59.90
20856;DHT22;63058;49.424;8.420;2024-03-23T10:15:20;14.30;59.40
20856;DHT22;63058;49.424;8.420;2024-03-23T10:17:46;14.40;60.40
20856;DHT22;63058;49.424;8.420;2024-03-23T10:20:12;14.50;61.30
20856;DHT22;63058;49.424;8.420;2024-03-23T10:22:38;14.70;60.90
20856;DHT22;63058;49.424;8.420;2024-03-23T10:25:10;14.80;59.80
20856;DHT22;63058;49.424;8.420;2024-03-23T10:27:36;15.00;60.30
20856;DHT22;63058;49.424;8.420;2024-03-23T10:30:13;15.10;58.60
20856;DHT22;63058;49.424;8.420;2024-03-23T10:32:40;15.30;59.70
20856;DHT22;63058;49.424;8.420;2024-03-23T10:35:19;15.30;58.70
20856;DHT22;63058;49.424;8.420;2024-03-23T10:37:48;15.40;55.70
20856;DHT22;63058;49.424;8.420;2024-03-23T10:40:19;15.40;56.20
20856;DHT22;63058;49.424;8.420;2024-03-23T10:42:45;15.40;55.30
20856;DHT22;63058;49.424;8.420;2024-03-23T10:45:10;15.40;55.00
20856;DHT22;63058;49.424;8.420;2024-03-23T10:47:37;15.40;55.00
20856;DHT22;63058;49.424;8.420;2024-03-23T10:50:06;15.50;55.00
20856;DHT22;63058;49.424;8.420;2024-03-23T10:52:35;15.80;55.50
20856;DHT22;63058;49.424;8.420;2024-03-23T10:55:05;16.10;55.80
20856;DHT22;63058;49.424;8.420;2024-03-23T10:57:39;16.50;54.40
20856;DHT22;63058;49.424;8.420;2024-03-23T11:00:06;16.90;52.30
20856;DHT22;63058;49.424;8.420;2024-03-23T11:02:32;17.30;50.60
20856;DHT22;63058;49.424;8.420;2024-03-23T11:04:57;17.50;50.70
20856;DHT22;63058;49.424;8.420;2024-03-23T11:09:52;17.60;51.30
20856;DHT22;63058;49.424;8.420;2024-03-23T11:14:47;17.60;51.20
20856;DHT22;63058;49.424;8.420;2024-03-23T11:17:23;17.60;52.10
20856;DHT22;63058;49.424;8.420;2024-03-23T11:19:57;17.60;49.30
20856;DHT22;63058;49.424;8.420;2024-03-23T11:22:42;17.70;50.80
20856;DHT22;63058;49.424;8.420;2024-03-23T11:25:22;17.80;49.10
20856;DHT22;63058;49.424;8.420;2024-03-23T11:27:50;17.90;50.50
20856;DHT22;63058;49.424;8.420;2024-03-23T11:30:26;17.90;50.80
20856;DHT22;63058;49.424;8.420;2024-03-23T11:32:54;17.90;50.50
20856;DHT22;63058;49.424;8.420;2024-03-23T11:35:31;17.90;49.60
20856;DHT22;63058;49.424;8.420;2024-03-23T11:40:48;18.00;50.20
20856;DHT22;63058;49.424;8.420;2024-03-23T11:43:18;18.00;50.00
20856;DHT22;63058;49.424;8.420;2024-03-23T11:45:49;17.90;49.20
20856;DHT22;63058;49.424;8.420;2024-03-23T11:48:19;17.60;49.70
20856;DHT22;63058;49.424;8.420;2024-03-23T11:50:46;17.30;50.30
20856;DHT22;63058;49.424;8.420;2024-03-23T11:53:16;16.70;52.80
20856;DHT22;63058;49.424;8.420;2024-03-23T11:55:49;16.10;54.10
20856;DHT22;63058;49.424;8.420;2024-03-23T11:58:16;15.40;56.00
20856;DHT22;63058;49.424;8.420;2024-03-23T12:00:49;14.60;57.20
20856;DHT22;63058;49.424;8.420;2024-03-23T12:03:16;14.00;58.80
20856;DHT22;63058;49.424;8.420;2024-03-23T12:05:41;13.40;59.60
20856;DHT22;63058;49.424;8.420;2024-03-23T12:08:24;12.90;61.00
20856;DHT22;63058;49.424;8.420;2024-03-23T12:10:52;12.60;62.80
20856;DHT22;63058;49.424;8.420;2024-03-23T12:13:19;12.30;64.00
20856;DHT22;63058;49.424;8.420;2024-03-23T12:15:46;12.10;63.90
20856;DHT22;63058;49.424;8.420;2024-03-23T12:18:12;11.90;64.50
20856;DHT22;63058;49.424;8.420;2024-03-23T12:20:39;11.80;65.60
20856;DHT22;63058;49.424;8.420;2024-03-23T12:23:08;11.70;66.50
20856;DHT22;63058;49.424;8.420;2024-03-23T12:25:35;11.70;67.80
20856;DHT22;63058;49.424;8.420;2024-03-23T12:28:01;11.70;68.90
20856;DHT22;63058;49.424;8.420;2024-03-23T12:30:27;11.70;68.50
20856;DHT22;63058;49.424;8.420;2024-03-23T12:32:53;11.80;68.90
20856;DHT22;63058;49.424;8.420;2024-03-23T12:35:19;11.90;71.10
20856;DHT22;63058;49.424;8.420;2024-03-23T12:37:45;12.40;74.80
20856;DHT22;63058;49.424;8.420;2024-03-23T12:40:11;13.00;75.10
20856;DHT22;63058;49.424;8.420;2024-03-23T12:42:37;13.60;73.80
20856;DHT22;63058;49.424;8.420;2024-03-23T12:45:03;14.20;66.30
20856;DHT22;63058;49.424;8.420;2024-03-23T12:47:30;14.40;62.80
20856;DHT22;63058;49.424;8.420;2024-03-23T12:49:56;14.50;62.30
20856;DHT22;63058;49.424;8.420;2024-03-23T12:52:21;14.30;62.70
20856;DHT22;63058;49.424;8.420;2024-03-23T12:54:49;14.20;62.70
20856;DHT22;63058;49.424;8.420;2024-03-23T12:57:15;13.90;63.10
20856;DHT22;63058;49.424;8.420;2024-03-23T12:59:40;13.50;64.50
20856;DHT22;63058;49.424;8.420;2024-03-23T13:02:06;13.00;66.50
20856;DHT22;63058;49.424;8.420;2024-03-23T13:04:32;12.40;67.60
20856;DHT22;63058;49.424;8.420;2024-03-23T13:06:58;11.80;69.30
20856;DHT22;63058;49.424;8.420;2024-03-23T13:09:23;11.20;70.30
20856;DHT22;63058;49.424;8.420;2024-03-23T13:11:49;10.80;72.70
20856;DHT22;63058;49.424;8.420;2024-03-23T13:14:15;10.50;74.60
20856;DHT22;63058;49.424;8.420;2024-03-23T13:16:42;10.50;79.80
20856;DHT22;63058;49.424;8.420;2024-03-23T13:19:07;10.80;83.90
20856;DHT22;63058;49.424;8.420;2024-03-23T13:21:33;11.30;87.00
20856;DHT22;63058;49.424;8.420;2024-03-23T13:23:59;11.90;88.90
20856;DHT22;63058;49.424;8.420;2024-03-23T13:26:24;12.60;88.60
20856;DHT22;63058;49.424;8.420;2024-03-23T13:28:50;13.10;85.00
20856;DHT22;63058;49.424;8.420;2024-03-23T13:31:16;13.50;83.40
20856;DHT22;63058;49.424;8.420;2024-03-23T13:33:41;13.70;80.50
20856;DHT22;63058;49.424;8.420;2024-03-23T13:36:09;13.90;80.30
20856;DHT22;63058;49.424;8.420;2024-03-23T13:38:35;14.00;79.40
20856;DHT22;63058;49.424;8.420;2024-03-23T13:41:00;14.00;76.50
20856;DHT22;63058;49.424;8.420;2024-03-23T13:43:27;14.00;77.20
20856;DHT22;63058;49.424;8.420;2024-03-23T13:45:54;13.90;76.50
20856;DHT22;63058;49.424;8.420;2024-03-23T13:48:22;13.90;75.70
20856;DHT22;63058;49.424;8.420;2024-03-23T13:51:02;13.80;74.60
20856;DHT22;63058;49.424;8.420;2024-03-23T13:53:28;13.80;76.40
20856;DHT22;63058;49.424;8.420;2024-03-23T13:55:54;14.00;78.00
20856;DHT22;63058;49.424;8.420;2024-03-23T13:58:20;14.10;77.20
20856;DHT22;63058;49.424;8.420;2024-03-23T14:00:46;14.20;77.50
20856;DHT22;63058;49.424;8.420;2024-03-23T14:03:13;14.50;78.80
20856;DHT22;63058;49.424;8.420;2024-03-23T14:05:40;14.80;80.70
20856;DHT22;63058;49.424;8.420;2024-03-23T14:08:09;15.10;78.80
20856;DHT22;63058;49.424;8.420;2024-03-23T14:10:35;15.40;77.50
20856;DHT22;63058;49.424;8.420;2024-03-23T14:13:02;15.70;77.40
20856;DHT22;63058;49.424;8.420;2024-03-23T14:15:28;15.90;76.70
20856;DHT22;63058;49.424;8.420;2024-03-23T14:17:54;16.00;73.00
20856;DHT22;63058;49.424;8.420;2024-03-23T14:20:20;16.00;72.60
20856;DHT22;63058;49.424;8.420;2024-03-23T14:22:47;15.90;72.70
20856;DHT22;63058;49.424;8.420;2024-03-23T14:25:13;16.00;74.70
20856;DHT22;63058;49.424;8.420;2024-03-23T14:27:38;16.00;73.20
20856;DHT22;63058;49.424;8.420;2024-03-23T14:30:04;16.00;71.60
20856;DHT22;63058;49.424;8.420;2024-03-23T14:32:30;15.90;70.00
20856;DHT22;63058;49.424;8.420;2024-03-23T14:35:06;15.60;69.70
20856;DHT22;63058;49.424;8.420;2024-03-23T14:37:38;15.30;66.70
20856;DHT22;63058;49.424;8.420;2024-03-23T14:40:05;15.10;68.40
20856;DHT22;63058;49.424;8.420;2024-03-23T14:42:32;14.90;69.70
20856;DHT22;63058;49.424;8.420;2024-03-23T14:44:58;14.70;69.90
20856;DHT22;63058;49.424;8.420;2024-03-23T14:47:24;14.50;70.70
20856;DHT22;63058;49.424;8.420;2024-03-23T14:49:49;14.40;71.80
20856;DHT22;63058;49.424;8.420;2024-03-23T14:52:18;14.30;70.40
20856;DHT22;63058;49.424;8.420;2024-03-23T14:54:46;14.30;71.00
20856;DHT22;63058;49.424;8.420;2024-03-23T14:57:12;14.20;70.90
20856;DHT22;63058;49.424;8.420;2024-03-23T14:59:38;14.10;70.80
20856;DHT22;63058;49.424;8.420;2024-03-23T15:02:04;14.10;70.70
20856;DHT22;63058;49.424;8.420;2024-03-23T15:04:30;14.00;69.60
20856;DHT22;63058;49.424;8.420;2024-03-23T15:06:56;13.90;69.60
20856;DHT22;63058;49.424;8.420;2024-03-23T15:09:21;13.80;69.40
20856;DHT22;63058;49.424;8.420;2024-03-23T15:11:47;13.80;69.70
20856;DHT22;63058;49.424;8.420;2024-03-23T15:14:12;13.70;69.40
20856;DHT22;63058;49.424;8.420;2024-03-23T15:16:38;13.60;69.50
20856;DHT22;63058;49.424;8.420;2024-03-23T15:19:04;13.50;69.20
20856;DHT22;63058;49.424;8.420;2024-03-23T15:21:32;13.50;69.90
20856;DHT22;63058;49.424;8.420;2024-03-23T15:23:57;13.40;69.80
20856;DHT22;63058;49.424;8.420;2024-03-23T15:26:23;13.40;69.80
20856;DHT22;63058;49.424;8.420;2024-03-23T15:28:49;13.30;68.60
20856;DHT22;63058;49.424;8.420;2024-03-23T15:31:23;13.30;68.20
20856;DHT22;63058;49.424;8.420;2024-03-23T15:33:49;13.30;64.00
20856;DHT22;63058;49.424;8.420;2024-03-23T15:36:15;13.20;62.80
20856;DHT22;63058;49.424;8.420;2024-03-23T15:38:41;13.10;63.40
20856;DHT22;63058;49.424;8.420;2024-03-23T15:41:08;13.00;62.70
20856;DHT22;63058;49.424;8.420;2024-03-23T15:43:34;12.90;62.70
20856;DHT22;63058;49.424;8.420;2024-03-23T15:46:04;12.80;63.80
20856;DHT22;63058;49.424;8.420;2024-03-23T15:48:31;12.70;64.70
20856;DHT22;63058;49.424;8.420;2024-03-23T15:50:59;12.40;65.70
20856;DHT22;63058;49.424;8.420;2024-03-23T15:53:25;12.20;66.50
20856;DHT22;63058;49.424;8.420;2024-03-23T15:55:55;11.80;67.40
20856;DHT22;63058;49.424;8.420;2024-03-23T15:58:24;11.50;67.80
20856;DHT22;63058;49.424;8.420;2024-03-23T16:01:03;11.20;68.20
20856;DHT22;63058;49.424;8.420;2024-03-23T16:03:30;11.00;70.10
20856;DHT22;63058;49.424;8.420;2024-03-23T16:06:03;11.10;73.90
20856;DHT22;63058;49.424;8.420;2024-03-23T16:08:30;11.50;77.50
20856;DHT22;63058;49.424;8.420;2024-03-23T16:11:06;12.20;78.90
20856;DHT22;63058;49.424;8.420;2024-03-23T16:13:33;12.80;76.20
20856;DHT22;63058;49.424;8.420;2024-03-23T16:16:01;13.40;75.10
20856;DHT22;63058;49.424;8.420;2024-03-23T16:18:29;13.70;73.00
20856;DHT22;63058;49.424;8.420;2024-03-23T16:21:02;13.80;69.90
20856;DHT22;63058;49.424;8.420;2024-03-23T16:23:28;13.70;67.30
20856;DHT22;63058;49.424;8.420;2024-03-23T16:25:56;13.40;66.60
20856;DHT22;63058;49.424;8.420;2024-03-23T16:28:29;13.10;66.70
20856;DHT22;63058;49.424;8.420;2024-03-23T16:31:06;12.80;65.70